Main page
METAR-TAF:

METAR-TAF

Airports :

Soyo Airport

Soyo, Angola

latitude: 6-8-28S, longitude: 12-22-19E, elevation: 5 m

Current weather observation

The report was made 10 hours and 29 minutes ago, at 15:00 UTC
Wind 13 kt from the West
Temperature
Pressure
Visibility: 9000 m
Few clouds at a height of 1100 ft
Broken clouds at a height of 7000 ft

METAR: FNSO 181500Z 28013KT 9000 FEW011 BKN070 ///// Q////

Time: 02:29 (01:29 UTC)

Forecast

The report was made 2 hours and 29 minutes ago, at 23:00 UTC
Forecast valid from 19 at 00 UTC to 19 at 12 UTC
Wind 5 kt from the South/Southeast
Visibility: 9000 m
Scattered clouds at a height of 1500 ft
Few clouds at a height of 3000 ft, Cumulonimbus.
Broken clouds at a height of 5000 ft
thunderstorm
Becoming
from 19 at 10 UTC to 19 at 12 UTC
Visibility: 8000 m
thunderstorm, light rain

TAF: FNSO 182300Z 1900/1912 16005KT 9000 TS SCT015 FEW030CB BKN050 BECMG 1910/1912 8000 TS -RA

Weather observations and forecasts of more than 4000 airports (METAR and TAF reports).

The available stations are represented by yellow and red dots on the map.

Hover mouse over dot to see the name of the station.

Then click to see weather observations and forecasts.

To change the map : click on the green buttons with a black cross to zoom in, on the green button with a dash to zoom out, or on the green arrows for adjacent maps.


METAR-TAF: